Time;durP1;ratioP1;P1;durP2;ratioP2;P2;SDS_P1;SDS_P2;PMS_P1;PMS_P2;Temp;Humidity;BMP_temperature;BMP_pressure;BME280_temperature;BME280_humidity;BME280_pressure;Samples;Min_cycle;Max_cycle;Signal;HPM_P1;HPM_P2
2022/07/31 00:01:22;;;;;;;18.30;7.40;;;;;;;21.51;54.33;101331.47;5113961;28;20415;-61
2022/07/31 00:03:49;;;;;;;15.93;7.00;;;;;;;21.52;54.52;101329.56;5113922;28;20493;-59
2022/07/31 00:06:17;;;;;;;15.95;6.30;;;;;;;21.42;54.86;101332.69;5113469;28;20044;-60
2022/07/31 00:08:44;;;;;;;21.98;6.25;;;;;;;21.36;54.82;101328.16;5113951;28;20126;-60
2022/07/31 00:11:11;;;;;;;15.48;6.35;;;;;;;21.35;54.86;101338.09;5101088;28;20059;-60
2022/07/31 00:13:37;;;;;;;16.50;6.28;;;;;;;21.32;54.84;101330.44;5098988;28;20048;-60
2022/07/31 00:16:04;;;;;;;16.83;6.90;;;;;;;21.33;54.64;101337.50;5113622;28;20067;-60
2022/07/31 00:18:32;;;;;;;15.13;6.88;;;;;;;21.25;54.91;101338.53;5093834;28;20036;-60
2022/07/31 00:21:01;;;;;;;13.38;6.68;;;;;;;21.25;54.96;101325.06;5092503;28;20078;-60
2022/07/31 00:23:28;;;;;;;17.13;6.80;;;;;;;21.21;54.91;101320.28;5097167;28;20447;-60
2022/07/31 00:25:55;;;;;;;12.77;6.03;;;;;;;21.15;55.36;101318.44;5114077;28;20043;-60
2022/07/31 00:28:22;;;;;;;12.63;5.70;;;;;;;21.03;56.07;101326.34;5112407;28;20134;-60
2022/07/31 00:30:49;;;;;;;14.60;5.95;;;;;;;21.04;55.86;101326.13;5113842;28;20048;-60
2022/07/31 00:33:15;;;;;;;19.67;6.10;;;;;;;20.89;56.75;101320.13;5112021;28;20062;-59
2022/07/31 00:35:42;;;;;;;17.42;6.47;;;;;;;20.93;56.85;101318.66;5113599;28;20044;-60
2022/07/31 00:38:09;;;;;;;21.13;6.00;;;;;;;20.86;57.03;101310.56;5113719;28;20054;-59
2022/07/31 00:40:53;;;;;;;18.38;6.63;;;;;;;20.88;57.25;101313.06;5112001;28;20043;-60
2022/07/31 00:43:19;;;;;;;18.92;6.32;;;;;;;20.84;57.65;101307.25;5113918;28;20105;-60
2022/07/31 00:45:47;;;;;;;16.02;6.10;;;;;;;20.83;58.16;101311.00;5113145;28;20448;-60
2022/07/31 00:48:13;;;;;;;15.75;6.28;;;;;;;20.78;57.98;101308.09;5113506;28;20509;-60
2022/07/31 00:50:40;;;;;;;19.00;6.40;;;;;;;20.76;58.15;101303.97;5113331;28;20058;-60
2022/07/31 00:53:06;;;;;;;14.13;6.13;;;;;;;20.75;58.41;101305.00;5113259;28;20382;-59
2022/07/31 00:55:33;;;;;;;13.05;5.95;;;;;;;20.76;58.21;101310.19;5113588;28;20050;-60
2022/07/31 00:58:00;;;;;;;14.57;5.65;;;;;;;20.79;58.24;101306.22;5105361;28;20089;-59
2022/07/31 01:00:27;;;;;;;15.60;5.80;;;;;;;20.80;58.01;101297.13;5091164;28;20537;-60
2022/07/31 01:02:53;;;;;;;14.10;5.85;;;;;;;20.77;57.61;101292.94;5080712;28;20045;-60
2022/07/31 01:05:20;;;;;;;15.05;5.88;;;;;;;20.77;57.97;101294.81;5113357;28;20071;-59
2022/07/31 01:07:48;;;;;;;22.70;5.38;;;;;;;20.82;58.14;101295.84;5112386;28;20054;-60
2022/07/31 01:10:24;;;;;;;20.10;6.18;;;;;;;20.83;58.41;101299.38;5108329;28;20477;-60
2022/07/31 01:12:55;;;;;;;14.85;5.95;;;;;;;20.84;58.72;101301.03;5093273;28;20482;-61
2022/07/31 01:15:24;;;;;;;13.83;5.10;;;;;;;20.88;58.84;101302.28;5104500;28;20100;-60
2022/07/31 01:17:52;;;;;;;14.27;5.80;;;;;;;20.84;58.97;101292.97;5111711;28;20036;-60
2022/07/31 01:20:19;;;;;;;12.50;5.40;;;;;;;20.86;59.15;101289.00;5113178;28;20039;-60
2022/07/31 01:23:16;;;;;;;18.63;6.20;;;;;;;20.85;58.99;101284.66;5113320;28;20044;-60
2022/07/31 01:26:29;;;;;;;14.25;5.50;;;;;;;20.80;58.59;101287.16;5112807;28;20046;-61
2022/07/31 01:29:17;;;;;;;20.38;6.18;;;;;;;20.79;58.85;101290.06;5113180;28;20500;-60
2022/07/31 01:31:52;;;;;;;13.45;5.50;;;;;;;20.75;58.74;101286.13;5113085;28;20050;-60
2022/07/31 01:34:59;;;;;;;16.67;5.82;;;;;;;20.82;58.92;101281.56;5111496;28;20050;-60
2022/07/31 01:37:31;;;;;;;13.80;5.40;;;;;;;20.78;58.85;101283.84;5071333;28;20037;-61
2022/07/31 01:40:09;;;;;;;14.80;5.35;;;;;;;20.82;58.43;101276.16;5105292;28;20100;-59
2022/07/31 01:42:41;;;;;;;11.43;5.78;;;;;;;20.81;58.98;101285.28;5111982;28;20044;-59
2022/07/31 01:45:13;;;;;;;16.00;5.95;;;;;;;20.78;59.03;101286.53;5113421;28;20126;-59
2022/07/31 01:47:42;;;;;;;12.63;5.40;;;;;;;20.76;59.00;101283.22;5111603;28;20156;-59
2022/07/31 01:50:10;;;;;;;17.23;5.65;;;;;;;20.76;59.20;101285.09;5112492;28;20044;-59
2022/07/31 01:52:41;;;;;;;13.40;5.40;;;;;;;20.75;59.11;101280.72;5112961;28;20476;-59
2022/07/31 01:55:11;;;;;;;14.93;5.30;;;;;;;20.63;59.24;101280.50;5112853;28;20143;-59
2022/07/31 01:57:41;;;;;;;12.93;5.70;;;;;;;20.68;59.27;101284.28;5112827;28;20096;-59
2022/07/31 02:00:09;;;;;;;18.48;5.50;;;;;;;20.66;59.10;101278.22;5112959;28;20130;-59
2022/07/31 02:02:42;;;;;;;14.02;5.18;;;;;;;20.65;58.79;101275.78;5116358;28;20047;-59
2022/07/31 02:05:10;;;;;;;12.80;5.38;;;;;;;20.62;59.17;101271.59;5114709;28;20047;-59
2022/07/31 02:07:39;;;;;;;16.20;5.60;;;;;;;20.56;59.58;101276.97;5116187;28;20039;-59
2022/07/31 02:10:10;;;;;;;13.65;5.43;;;;;;;20.52;59.14;101272.00;5112575;28;20165;-59
2022/07/31 02:12:38;;;;;;;15.38;5.50;;;;;;;20.51;59.39;101269.50;5096331;28;20052;-59
2022/07/31 02:15:10;;;;;;;12.77;5.95;;;;;;;20.50;59.13;101278.63;5114184;28;20512;-59
2022/07/31 02:17:41;;;;;;;15.95;5.70;;;;;;;20.42;59.54;101268.88;5095615;28;20039;-60
2022/07/31 02:20:29;;;;;;;14.98;5.03;;;;;;;20.40;59.36;101270.94;5075510;28;20057;-60
2022/07/31 02:22:57;;;;;;;11.40;5.20;;;;;;;20.38;59.44;101264.13;5108195;28;20052;-59
2022/07/31 02:25:25;;;;;;;12.32;5.50;;;;;;;20.32;59.40;101265.78;5115975;28;20035;-60
2022/07/31 02:27:55;;;;;;;13.23;5.40;;;;;;;20.26;59.87;101266.59;5116331;28;20040;-60
2022/07/31 02:30:26;;;;;;;12.88;5.50;;;;;;;20.29;59.56;101263.47;5116128;28;20105;-60
2022/07/31 02:32:54;;;;;;;23.48;5.53;;;;;;;20.30;59.32;101259.75;5116347;28;20044;-60
2022/07/31 02:35:23;;;;;;;12.88;5.35;;;;;;;20.30;59.03;101265.97;5115483;28;20054;-60
2022/07/31 02:37:51;;;;;;;19.63;5.80;;;;;;;20.31;59.19;101264.94;5115764;28;20031;-59
2022/07/31 02:40:20;;;;;;;15.07;5.25;;;;;;;20.33;59.35;101267.41;5115745;28;20047;-60
2022/07/31 02:42:49;;;;;;;12.88;5.20;;;;;;;20.33;59.09;101262.03;5116187;28;20048;-60
2022/07/31 02:45:16;;;;;;;11.98;5.40;;;;;;;20.35;59.63;101259.97;5115474;28;20492;-60
2022/07/31 02:47:43;;;;;;;15.00;5.20;;;;;;;20.32;59.14;101261.22;5116064;28;20182;-60
2022/07/31 02:50:12;;;;;;;18.60;5.22;;;;;;;20.32;59.17;101261.22;5115542;28;20485;-59
2022/07/31 02:52:39;;;;;;;12.30;5.05;;;;;;;20.37;59.02;101259.75;5115602;28;20100;-59
2022/07/31 02:55:06;;;;;;;15.15;5.18;;;;;;;20.28;59.17;101267.19;5115481;28;20628;-59
2022/07/31 02:57:33;;;;;;;13.93;5.45;;;;;;;20.29;59.56;101260.78;5115442;28;20039;-59
2022/07/31 03:00:13;;;;;;;14.60;4.75;;;;;;;20.30;59.70;101268.69;5115451;28;20048;-59
2022/07/31 03:02:41;;;;;;;14.65;5.18;;;;;;;20.33;59.74;101264.72;5105785;28;20046;-59
2022/07/31 03:05:07;;;;;;;17.75;5.25;;;;;;;20.30;59.92;101263.28;5113815;28;20043;-59
2022/07/31 03:07:35;;;;;;;16.08;5.47;;;;;;;20.26;60.29;101259.31;5115304;28;20093;-59
2022/07/31 03:10:02;;;;;;;14.93;5.15;;;;;;;20.33;60.42;101268.25;5112115;28;20048;-59
2022/07/31 03:12:43;;;;;;;15.45;5.82;;;;;;;20.36;60.50;101267.00;5095060;28;20068;-59
2022/07/31 03:15:14;;;;;;;15.60;5.57;;;;;;;20.33;61.05;101264.72;5104600;28;20039;-59
2022/07/31 03:17:43;;;;;;;14.27;5.60;;;;;;;20.34;60.95;101263.69;5113245;28;20040;-59
2022/07/31 03:20:14;;;;;;;16.95;5.65;;;;;;;20.35;60.84;101261.81;5113979;28;20052;-59
2022/07/31 03:22:42;;;;;;;16.60;5.80;;;;;;;20.26;61.13;101258.50;5115328;28;20043;-59
2022/07/31 03:25:10;;;;;;;11.65;5.30;;;;;;;20.36;61.18;101260.81;5113613;28;20412;-59
2022/07/31 03:27:37;;;;;;;16.88;5.75;;;;;;;20.36;61.12;101258.13;5114898;28;20047;-59
2022/07/31 03:30:05;;;;;;;15.13;5.80;;;;;;;20.33;61.55;101259.34;5114520;28;20047;-59
2022/07/31 03:32:34;;;;;;;15.60;6.35;;;;;;;20.25;60.86;101264.94;5114816;28;20070;-59
2022/07/31 03:35:01;;;;;;;20.52;6.00;;;;;;;20.26;61.30;101262.00;5115052;28;20503;-59
2022/07/31 03:37:28;;;;;;;16.35;6.18;;;;;;;20.31;60.69;101264.09;5113474;28;20093;-59
2022/07/31 03:39:54;;;;;;;17.33;6.05;;;;;;;20.32;60.89;101265.78;5115335;28;20547;-59
2022/07/31 03:42:22;;;;;;;15.52;6.28;;;;;;;20.32;62.09;101265.78;5114376;28;20470;-59
2022/07/31 03:44:51;;;;;;;17.42;6.00;;;;;;;20.31;62.33;101261.41;5114986;28;20054;-59
2022/07/31 03:47:18;;;;;;;21.52;5.90;;;;;;;20.30;63.15;101265.13;5114196;27;20036;-60
2022/07/31 03:49:46;;;;;;;12.40;5.80;;;;;;;20.33;62.85;101267.41;5114503;28;20378;-60
2022/07/31 03:52:13;;;;;;;16.40;6.65;;;;;;;20.32;62.06;101258.53;5114782;28;20052;-59
2022/07/31 03:54:41;;;;;;;15.38;6.32;;;;;;;20.20;62.16;101257.47;5114229;28;20059;-59
2022/07/31 03:57:15;;;;;;;12.48;5.68;;;;;;;20.18;61.67;101253.31;5114484;28;20039;-60
2022/07/31 03:59:45;;;;;;;17.73;5.72;;;;;;;20.13;60.74;101252.06;5114394;28;20122;-60
2022/07/31 04:02:11;;;;;;;12.35;5.80;;;;;;;20.13;61.16;101264.69;5114479;28;20089;-60
2022/07/31 04:04:42;;;;;;;16.52;6.35;;;;;;;20.01;61.05;101258.25;5113717;28;20040;-59
2022/07/31 04:07:09;;;;;;;14.45;6.18;;;;;;;20.03;61.40;101261.56;5114302;28;20046;-60
2022/07/31 04:09:37;;;;;;;15.60;5.88;;;;;;;20.07;61.78;101266.34;5113825;28;20050;-61
2022/07/31 04:12:05;;;;;;;13.98;5.78;;;;;;;20.08;61.62;101272.56;5093658;28;20493;-60
2022/07/31 04:14:32;;;;;;;15.40;5.90;;;;;;;20.10;60.34;101275.88;5107989;28;20424;-60
2022/07/31 04:16:58;;;;;;;17.05;5.53;;;;;;;19.95;60.74;101270.66;5097057;28;20090;-60
2022/07/31 04:19:29;;;;;;;14.52;5.85;;;;;;;20.01;60.88;101272.56;5093647;28;20134;-60
2022/07/31 04:21:57;;;;;;;19.20;5.90;;;;;;;20.13;60.49;101270.09;5101697;28;20044;-59
2022/07/31 04:24:24;;;;;;;17.42;6.03;;;;;;;20.16;60.53;101260.78;5113760;28;20052;-60
2022/07/31 04:27:11;;;;;;;18.08;5.85;;;;;;;20.07;61.03;101265.53;5113861;28;20059;-60
2022/07/31 04:29:41;;;;;;;18.35;5.75;;;;;;;20.04;61.12;101264.06;5113769;28;20101;-59
2022/07/31 04:32:08;;;;;;;11.68;5.43;;;;;;;20.10;60.54;101267.78;5114092;28;20067;-60
2022/07/31 04:34:41;;;;;;;13.13;5.72;;;;;;;20.14;60.46;101269.88;5113185;28;20043;-60
2022/07/31 04:37:08;;;;;;;13.00;5.70;;;;;;;20.05;60.53;101267.59;5113707;28;20481;-59
2022/07/31 04:39:35;;;;;;;16.30;5.68;;;;;;;20.02;61.77;101265.31;5113361;28;20131;-59
2022/07/31 04:42:02;;;;;;;13.45;5.00;;;;;;;20.02;61.01;101279.59;5112876;28;20096;-59
2022/07/31 04:44:30;;;;;;;15.77;5.20;;;;;;;19.99;61.71;101273.78;5113576;28;20062;-63
2022/07/31 04:47:01;;;;;;;16.63;5.00;;;;;;;20.05;61.77;101268.41;5113441;28;20040;-59
2022/07/31 04:49:31;;;;;;;11.88;5.25;;;;;;;20.09;61.05;101271.53;5113414;28;20043;-59
2022/07/31 04:52:00;;;;;;;18.05;5.05;;;;;;;20.10;60.96;101273.19;5113705;28;20093;-59
2022/07/31 04:54:27;;;;;;;16.35;5.20;;;;;;;20.11;60.62;101275.66;5113424;28;20074;-59
2022/07/31 04:56:55;;;;;;;11.23;4.95;;;;;;;20.09;61.09;101285.00;5113591;28;20051;-59
2022/07/31 04:59:23;;;;;;;19.63;4.88;;;;;;;20.09;60.98;101280.44;5113145;28;20035;-60
2022/07/31 05:01:50;;;;;;;15.43;4.72;;;;;;;20.25;59.95;101275.72;5112498;28;20051;-60
2022/07/31 05:04:21;;;;;;;14.55;4.95;;;;;;;20.10;60.77;101276.72;5087804;28;20090;-60
2022/07/31 05:06:50;;;;;;;19.00;4.55;;;;;;;20.18;60.60;101270.31;5101710;28;20051;-60
2022/07/31 05:09:21;;;;;;;15.75;4.50;;;;;;;20.26;59.88;101275.47;5111838;28;20151;-60
2022/07/31 05:11:51;;;;;;;12.27;4.68;;;;;;;20.18;60.61;101275.69;5095503;28;20101;-59
2022/07/31 05:14:19;;;;;;;12.38;4.45;;;;;;;20.12;60.80;101276.53;5095473;28;20478;-60
2022/07/31 05:16:47;;;;;;;13.00;4.50;;;;;;;20.06;61.33;101280.84;5113303;28;20036;-60
2022/07/31 05:19:15;;;;;;;12.40;4.72;;;;;;;20.08;61.19;101277.94;5110353;28;20036;-59
2022/07/31 05:22:03;;;;;;;13.55;4.53;;;;;;;20.12;60.82;101284.59;5113090;28;20048;-59
2022/07/31 05:24:50;;;;;;;11.88;4.53;;;;;;;20.12;60.66;101268.44;5113280;28;20050;-59
2022/07/31 05:27:17;;;;;;;12.65;4.28;;;;;;;20.10;61.03;101274.03;5113318;28;20560;-60
2022/07/31 05:29:44;;;;;;;10.60;4.43;;;;;;;20.19;60.95;101268.44;5113167;28;20048;-59
2022/07/31 05:32:11;;;;;;;15.57;4.40;;;;;;;20.09;61.01;101269.66;5094371;28;20461;-60
2022/07/31 05:34:38;;;;;;;11.25;4.32;;;;;;;20.01;61.46;101269.88;5113495;28;20051;-60
2022/07/31 05:37:05;;;;;;;14.05;4.28;;;;;;;20.13;61.17;101272.78;5115833;28;20122;-60
2022/07/31 05:39:34;;;;;;;12.85;4.70;;;;;;;20.13;61.21;101275.47;5117214;28;20485;-60
2022/07/31 05:42:21;;;;;;;14.70;4.35;;;;;;;20.16;61.09;101277.75;5116626;28;20039;-60
2022/07/31 05:45:08;;;;;;;9.70;4.30;;;;;;;20.20;61.21;101276.31;5117062;28;20043;-59
2022/07/31 05:47:36;;;;;;;13.52;3.92;;;;;;;20.21;61.74;101278.00;5116733;28;20036;-59
2022/07/31 05:50:04;;;;;;;20.40;7.28;;;;;;;20.18;61.46;101269.50;5116823;28;20044;-59
2022/07/31 05:52:30;;;;;;;17.45;4.10;;;;;;;20.11;61.71;101272.97;5117128;28;20122;-59
2022/07/31 05:55:17;;;;;;;9.68;3.95;;;;;;;20.18;61.77;101273.00;5115890;28;20051;-59
2022/07/31 05:58:04;;;;;;;12.00;4.00;;;;;;;20.25;61.49;101273.84;5116392;28;20044;-60
2022/07/31 06:00:32;;;;;;;13.63;3.92;;;;;;;20.22;61.76;101266.16;5115659;28;20546;-59
2022/07/31 06:03:00;;;;;;;15.43;4.25;;;;;;;20.19;61.76;101276.50;5116906;28;20096;-58
2022/07/31 06:05:46;;;;;;;12.52;4.00;;;;;;;20.24;62.14;101276.75;5116578;28;20044;-59
2022/07/31 06:08:13;;;;;;;10.77;4.00;;;;;;;20.34;61.68;101279.88;5116922;28;20043;-59
2022/07/31 06:10:44;;;;;;;11.60;4.17;;;;;;;20.38;61.32;101274.91;5107138;28;20036;-59
2022/07/31 06:13:12;;;;;;;11.90;3.50;;;;;;;20.36;61.69;101277.78;5096235;28;20794;-59
2022/07/31 06:15:41;;;;;;;10.65;3.63;;;;;;;20.40;61.42;101270.13;5097965;28;20090;-59
2022/07/31 06:18:08;;;;;;;10.55;3.58;;;;;;;20.41;61.79;101269.06;5095938;28;20466;-58
2022/07/31 06:20:36;;;;;;;9.70;3.40;;;;;;;20.46;61.81;101275.50;5095946;28;20127;-59
2022/07/31 06:23:02;;;;;;;11.85;3.50;;;;;;;20.55;61.50;101272.63;5113282;28;20096;-59
2022/07/31 06:25:33;;;;;;;12.77;3.33;;;;;;;20.60;60.91;101270.13;5116221;28;20047;-59
2022/07/31 06:28:02;;;;;;;10.52;3.20;;;;;;;20.59;61.26;101273.84;5116447;28;20036;-59
2022/07/31 06:30:28;;;;;;;10.10;3.40;;;;;;;20.43;61.80;101267.84;5115438;28;20046;-59
2022/07/31 06:32:55;;;;;;;8.43;3.22;;;;;;;20.55;62.26;101259.16;5115854;28;20455;-59
2022/07/31 06:35:22;;;;;;;11.13;3.13;;;;;;;20.59;61.59;101255.84;5116155;28;20047;-59
2022/07/31 06:38:09;;;;;;;15.73;3.30;;;;;;;20.69;61.80;101250.06;5115747;28;20047;-59
2022/07/31 06:40:55;;;;;;;9.85;3.25;;;;;;;20.74;61.33;101246.72;5115268;28;20404;-59
2022/07/31 06:43:33;;;;;;;14.25;2.97;;;;;;;20.64;61.53;101261.44;5116094;28;20047;-59
2022/07/31 06:46:19;;;;;;;6.35;2.50;;;;;;;20.49;62.58;101267.00;5115398;28;20089;-60
2022/07/31 06:49:09;;;;;;;8.38;2.63;;;;;;;20.43;62.92;101281.31;5115456;28;20560;-59
2022/07/31 06:51:36;;;;;;;9.75;2.60;;;;;;;20.35;63.63;101281.50;5115734;28;20043;-59
2022/07/31 06:54:05;;;;;;;6.28;2.50;;;;;;;20.34;64.23;101279.88;5114389;28;20112;-59
2022/07/31 06:56:33;;;;;;;8.95;2.60;;;;;;;20.31;64.90;101281.09;5115610;28;20050;-59
2022/07/31 06:59:01;;;;;;;8.02;2.70;;;;;;;20.51;64.62;101288.38;5115733;28;20043;-60
2022/07/31 07:01:28;;;;;;;8.02;2.40;;;;;;;20.42;65.03;101285.03;5115610;28;20048;-60
2022/07/31 07:03:55;;;;;;;9.98;2.97;;;;;;;20.41;65.53;101283.41;5108221;28;20413;-59
2022/07/31 07:06:23;;;;;;;15.10;2.80;;;;;;;20.32;66.80;101280.06;5095729;28;20044;-60
2022/07/31 07:08:50;;;;;;;10.70;3.25;;;;;;;20.18;66.93;101280.25;5099184;28;20043;-60
2022/07/31 07:11:19;;;;;;;10.40;2.90;;;;;;;20.23;67.00;101280.44;5100595;28;20071;-59
2022/07/31 07:13:46;;;;;;;10.45;3.13;;;;;;;20.17;68.11;101279.41;5101281;28;20127;-60
2022/07/31 07:16:15;;;;;;;12.45;3.10;;;;;;;20.22;68.37;101276.13;5104589;28;20070;-60
2022/07/31 07:18:43;;;;;;;12.43;3.00;;;;;;;20.11;68.59;101280.25;5097889;28;20063;-60
2022/07/31 07:21:10;;;;;;;9.32;3.35;;;;;;;20.18;68.01;101286.47;5095039;28;20044;-60
2022/07/31 07:23:38;;;;;;;10.40;3.40;;;;;;;20.16;68.52;101285.03;5107909;28;20392;-60
2022/07/31 07:26:17;;;;;;;15.88;3.40;;;;;;;20.04;68.42;101285.59;5115261;28;20119;-60
2022/07/31 07:28:44;;;;;;;7.50;3.17;;;;;;;20.05;67.94;101275.69;5114837;27;20385;-60
2022/07/31 07:31:11;;;;;;;8.82;3.33;;;;;;;20.08;68.11;101267.16;5114947;28;20092;-59
2022/07/31 07:33:37;;;;;;;12.35;3.20;;;;;;;20.04;68.50;101264.06;5114636;28;20390;-60
2022/07/31 07:36:06;;;;;;;11.27;3.08;;;;;;;20.01;68.77;101275.25;5114617;28;20104;-60
2022/07/31 07:38:33;;;;;;;10.65;3.40;;;;;;;20.17;69.07;101275.91;5114829;28;20050;-60
2022/07/31 07:40:59;;;;;;;8.43;3.20;;;;;;;20.24;68.87;101260.56;5113293;28;20039;-59
2022/07/31 07:43:26;;;;;;;10.23;3.20;;;;;;;20.30;69.48;101259.75;5114919;28;20051;-59
2022/07/31 07:45:53;;;;;;;7.38;3.00;;;;;;;20.33;69.62;101260.16;5114763;28;20047;-59
2022/07/31 07:48:19;;;;;;;11.93;3.00;;;;;;;20.35;69.64;101259.97;5114521;28;20047;-59
2022/07/31 07:51:07;;;;;;;11.02;3.10;;;;;;;20.45;68.98;101257.69;5114268;28;20061;-59
2022/07/31 07:53:45;;;;;;;10.40;3.05;;;;;;;20.67;68.27;101260.22;5114233;28;20122;-59
2022/07/31 07:56:33;;;;;;;9.63;3.30;;;;;;;20.73;67.45;101256.66;5114358;28;20052;-59
2022/07/31 07:59:19;;;;;;;12.80;3.15;;;;;;;20.67;67.33;101252.13;5112180;28;20050;-59
2022/07/31 08:02:07;;;;;;;13.20;3.25;;;;;;;20.60;68.07;101246.69;5114149;28;20066;-60
2022/07/31 08:04:34;;;;;;;8.43;3.10;;;;;;;20.73;67.97;101251.28;5113458;28;20118;-60
2022/07/31 08:07:00;;;;;;;8.27;2.80;;;;;;;20.83;67.67;101237.38;5113995;28;20044;-59
2022/07/31 08:09:34;;;;;;;10.45;3.30;;;;;;;20.88;67.51;101242.97;5114161;28;20058;-59
2022/07/31 08:12:20;;;;;;;12.38;4.20;;;;;;;20.83;67.44;101237.38;5104671;28;20489;-59
2022/07/31 08:15:07;;;;;;;8.45;2.90;;;;;;;20.88;67.55;101243.81;5113861;28;20047;-59
2022/07/31 08:17:39;;;;;;;10.77;2.97;;;;;;;20.95;67.32;101243.78;5107105;28;20048;-59
2022/07/31 08:20:06;;;;;;;10.05;3.28;;;;;;;20.79;67.58;101234.28;5094412;28;20052;-59
2022/07/31 08:22:33;;;;;;;9.68;2.90;;;;;;;20.75;68.22;101234.91;5112872;28;20117;-59
2022/07/31 08:25:00;;;;;;;8.15;2.83;;;;;;;20.77;68.08;101230.94;5113950;28;20044;-60
2022/07/31 08:27:27;;;;;;;11.15;3.08;;;;;;;20.79;67.93;101231.59;5113629;28;20059;-60
2022/07/31 08:29:57;;;;;;;9.90;2.90;;;;;;;20.85;67.91;101235.31;5112424;28;20036;-60
2022/07/31 08:32:24;;;;;;;9.45;3.10;;;;;;;20.97;68.07;101233.59;5112993;28;20039;-59
2022/07/31 08:35:11;;;;;;;8.57;3.10;;;;;;;21.03;66.85;101238.16;5113421;28;20431;-59
2022/07/31 08:37:41;;;;;;;8.80;3.08;;;;;;;20.95;67.47;101242.97;5113522;28;20085;-59
2022/07/31 08:40:08;;;;;;;11.95;2.80;;;;;;;21.03;67.17;101240.88;5113578;28;20043;-59
2022/07/31 08:42:36;;;;;;;9.40;2.53;;;;;;;21.18;66.58;101242.50;5099728;28;20044;-60
2022/07/31 08:45:06;;;;;;;6.82;2.90;;;;;;;21.20;66.93;101248.50;5113914;28;20051;-59
2022/07/31 08:47:37;;;;;;;12.40;3.17;;;;;;;21.32;66.49;101245.94;5113430;28;20050;-60
2022/07/31 08:50:13;;;;;;;9.90;2.75;;;;;;;21.34;66.29;101243.88;5096365;28;20063;-59
2022/07/31 08:52:43;;;;;;;10.57;3.00;;;;;;;21.40;65.53;101240.34;5112177;28;20040;-59
2022/07/31 08:55:24;;;;;;;8.90;3.00;;;;;;;21.43;65.93;101243.44;5112416;28;20485;-59
2022/07/31 08:57:52;;;;;;;8.40;2.95;;;;;;;21.54;65.23;101236.56;5113443;28;20050;-59
2022/07/31 09:00:21;;;;;;;9.55;2.90;;;;;;;21.62;65.03;101236.31;5113328;28;20043;-60
2022/07/31 09:02:48;;;;;;;11.55;2.88;;;;;;;21.73;64.45;101244.78;5113513;28;20468;-59
2022/07/31 09:05:37;;;;;;;8.60;2.65;;;;;;;21.76;63.88;101234.38;5096477;28;20044;-59
2022/07/31 09:08:05;;;;;;;12.23;3.05;;;;;;;21.84;63.79;101236.81;5090872;28;20047;-59
2022/07/31 09:10:32;;;;;;;7.38;2.70;;;;;;;21.96;63.43;101241.53;5107665;28;20414;-60
2022/07/31 09:13:10;;;;;;;8.85;2.78;;;;;;;22.13;63.51;101236.44;5098394;28;20044;-59
2022/07/31 09:15:37;;;;;;;8.68;2.70;;;;;;;22.23;62.51;101234.91;5117622;28;20130;-59
2022/07/31 09:18:16;;;;;;;9.55;2.80;;;;;;;22.37;62.45;101229.41;5106415;28;20398;-59
2022/07/31 09:20:54;;;;;;;9.32;3.10;;;;;;;22.46;61.80;101227.25;5096057;28;20055;-59
2022/07/31 09:23:21;;;;;;;10.60;2.92;;;;;;;22.60;61.08;101224.22;5116397;28;20050;-59
2022/07/31 09:25:57;;;;;;;11.63;3.28;;;;;;;22.47;61.11;101216.25;5117441;28;20100;-59
2022/07/31 09:28:37;;;;;;;13.00;2.80;;;;;;;22.53;60.65;101225.34;5117543;28;20051;-59
2022/07/31 09:31:06;;;;;;;10.07;3.20;;;;;;;22.43;61.14;101223.13;5116467;28;20514;-59
2022/07/31 09:33:53;;;;;;;10.35;2.97;;;;;;;22.51;60.59;101227.44;5117059;28;20050;-59
2022/07/31 09:36:39;;;;;;;11.07;3.50;;;;;;;22.40;60.64;101223.56;5116970;28;20040;-59
2022/07/31 09:39:27;;;;;;;11.35;2.80;;;;;;;22.45;61.25;101212.94;5116729;28;20047;-59
2022/07/31 09:42:14;;;;;;;12.43;3.60;;;;;;;22.56;60.59;101219.50;5116750;28;20039;-59
2022/07/31 09:44:49;;;;;;;13.45;3.63;;;;;;;22.54;60.22;101221.56;5117146;28;20044;-59
2022/07/31 09:47:23;;;;;;;9.75;3.03;;;;;;;22.37;61.22;101218.59;5116906;27;20438;-59
2022/07/31 09:49:55;;;;;;;10.07;3.20;;;;;;;22.36;61.35;101211.56;5116826;28;20077;-59
2022/07/31 09:52:25;;;;;;;7.93;3.10;;;;;;;22.45;61.09;101221.03;5116899;28;20055;-59
2022/07/31 09:55:03;;;;;;;7.57;3.17;;;;;;;22.35;61.04;101221.53;5116586;28;20050;-58
2022/07/31 09:57:30;;;;;;;7.82;3.10;;;;;;;22.33;61.07;101225.50;5116789;28;20122;-58
2022/07/31 09:59:58;;;;;;;10.13;3.20;;;;;;;22.19;61.67;101224.72;5116531;28;20452;-58
2022/07/31 10:02:28;;;;;;;12.00;3.38;;;;;;;22.15;61.55;101224.34;5116896;28;20051;-59
2022/07/31 10:04:56;;;;;;;9.23;3.15;;;;;;;22.19;62.00;101220.19;5115872;28;20489;-58
2022/07/31 10:07:26;;;;;;;13.68;3.67;;;;;;;22.15;61.48;101226.22;5116570;28;20059;-58
2022/07/31 10:09:56;;;;;;;9.60;3.38;;;;;;;22.07;62.27;101213.00;5114745;28;20051;-58
2022/07/31 10:12:48;;;;;;;12.02;3.30;;;;;;;22.10;62.42;101207.97;5091071;28;20397;-59
2022/07/31 10:15:17;;;;;;;8.77;3.10;;;;;;;22.31;62.63;101209.50;5079120;28;20036;-58
2022/07/31 10:17:51;;;;;;;12.63;3.50;;;;;;;22.46;62.40;101214.56;5095164;28;20048;-49
2022/07/31 10:20:35;;;;;;;10.57;3.80;;;;;;;22.75;59.84;101207.63;5075814;28;20119;-50
2022/07/31 10:23:13;;;;;;;12.50;3.17;;;;;;;22.92;60.04;101205.19;5094396;28;20418;-48
2022/07/31 10:25:50;;;;;;;12.13;3.33;;;;;;;22.93;59.76;101200.59;5109662;28;20051;-50
2022/07/31 10:28:18;;;;;;;9.05;3.35;;;;;;;22.96;59.54;101202.84;5116124;28;20031;-50
2022/07/31 10:30:45;;;;;;;9.38;3.22;;;;;;;22.92;59.95;101197.06;5116238;28;20051;-48
2022/07/31 10:33:13;;;;;;;12.73;3.55;;;;;;;23.28;59.07;101194.59;5115658;28;20509;-48
2022/07/31 10:36:20;;;;;;;11.82;3.17;;;;;;;23.56;58.60;101199.44;5095353;28;20043;-51
2022/07/31 10:39:15;;;;;;;8.45;3.40;;;;;;;23.63;56.94;101193.91;5114662;28;20118;-50
2022/07/31 10:42:11;;;;;;;9.77;3.25;;;;;;;23.49;57.55;101190.56;5114698;28;20131;-48
2022/07/31 10:44:45;;;;;;;10.63;3.42;;;;;;;23.54;57.81;101193.44;5116050;28;20043;-50
2022/07/31 10:47:18;;;;;;;9.65;3.70;;;;;;;23.62;56.94;101186.88;5115881;28;20044;-51
2022/07/31 10:50:06;;;;;;;13.07;3.55;;;;;;;23.62;56.94;101184.16;5115472;28;20092;-49
2022/07/31 10:52:53;;;;;;;14.57;3.53;;;;;;;23.32;57.80;101190.38;5115445;28;20040;-54
2022/07/31 10:55:31;;;;;;;10.80;3.10;;;;;;;23.56;57.26;101188.59;5115729;28;20423;-54
2022/07/31 10:58:18;;;;;;;12.63;3.40;;;;;;;23.65;57.81;101183.66;5105903;28;20047;-54
2022/07/31 11:01:05;;;;;;;31.88;4.13;;;;;;;23.70;57.57;101192.78;5115753;28;20120;-55
2022/07/31 11:03:45;;;;;;;18.10;3.67;;;;;;;23.74;56.93;101191.25;5115139;28;20075;-55
2022/07/31 11:06:20;;;;;;;53.15;5.70;;;;;;;23.88;56.93;101178.34;5103379;28;20044;-57
2022/07/31 11:08:53;;;;;;;11.48;3.50;;;;;;;23.89;56.58;101192.75;5089644;28;20093;-55
2022/07/31 11:11:40;;;;;;;8.80;3.00;;;;;;;23.86;56.69;101182.38;5103049;28;20059;-55
2022/07/31 11:14:32;;;;;;;7.75;3.03;;;;;;;23.82;58.21;101181.19;5106448;28;20040;-56
2022/07/31 11:17:30;;;;;;;11.25;3.50;;;;;;;23.84;56.62;101184.47;5096860;28;20071;-54
2022/07/31 11:20:20;;;;;;;10.18;3.33;;;;;;;23.77;57.24;101184.53;5108571;28;20572;-54
2022/07/31 11:23:03;;;;;;;8.13;3.20;;;;;;;23.87;56.61;101182.13;5093720;28;20056;-54
2022/07/31 11:25:33;;;;;;;9.60;3.40;;;;;;;23.80;55.83;101167.06;5099291;28;20500;-55
2022/07/31 11:28:17;;;;;;;10.43;3.28;;;;;;;23.77;56.65;101179.13;5114884;28;20081;-56
2022/07/31 11:30:55;;;;;;;12.13;3.80;;;;;;;23.71;57.65;101169.22;5114597;28;20497;-56
2022/07/31 11:33:33;;;;;;;12.73;3.67;;;;;;;23.70;56.38;101173.81;5113831;27;20397;-55
2022/07/31 11:36:22;;;;;;;13.80;3.45;;;;;;;23.79;56.27;101173.47;5115030;28;20051;-54
2022/07/31 11:38:52;;;;;;;11.93;3.85;;;;;;;23.87;55.82;101171.31;5114567;28;20051;-54
2022/07/31 11:41:20;;;;;;;10.60;3.38;;;;;;;24.04;55.85;101167.91;5114958;28;20171;-54
2022/07/31 11:43:49;;;;;;;8.50;3.30;;;;;;;24.06;55.89;101173.91;5114524;28;20039;-54